Time;durP1;ratioP1;P1;durP2;ratioP2;P2;SDS_P1;SDS_P2;PMS_P1;PMS_P2;Temp;Humidity;BMP_temperature;BMP_pressure;BME280_temperature;BME280_humidity;BME280_pressure;Samples;Min_cycle;Max_cycle;Signal;HPM_P1;HPM_P2
2023/01/17 01:35:44;;;;;;;;;;;;;;;5.15;100.00;95176.47;5115296;28;19924;-61
2023/01/17 01:38:11;;;;;;;;;;;;;;;5.10;100.00;95179.22;5113050;28;19924;-61
2023/01/17 01:40:41;;;;;;;;;;;;;;;5.01;100.00;95175.69;5116954;28;19924;-61
2023/01/17 01:43:10;;;;;;;;;;;;;;;5.18;100.00;95181.16;5115098;28;19967;-61
2023/01/17 01:45:37;;;;;;;;;;;;;;;5.15;100.00;95184.38;5116449;28;19960;-60
2023/01/17 01:48:06;;;;;;;;;;;;;;;5.06;100.00;95180.88;5118612;28;19924;-60
2023/01/17 01:50:36;;;;;;;;;;;;;;;5.11;100.00;95180.75;5115836;28;19928;-60
2023/01/17 01:53:03;;;;;;;;;;;;;;;4.94;100.00;95174.50;5114681;28;19928;-61
2023/01/17 01:55:32;;;;;;;;;;;;;;;5.13;100.00;95177.84;5114679;28;19928;-61
2023/01/17 01:58:01;;;;;;;;;;;;;;;5.18;100.00;95180.38;5116853;28;19978;-61
2023/01/17 02:00:29;;;;;;;;;;;;;;;5.16;100.00;95178.03;5109741;28;19960;-61
2023/01/17 02:02:57;;;;;;;;;;;;;;;5.19;100.00;95180.09;5118231;28;19926;-61
2023/01/17 02:05:24;;;;;;;;;;;;;;;5.06;100.00;95177.44;5125495;28;19951;-61
2023/01/17 02:07:54;;;;;;;;;;;;;;;4.97;100.00;95180.00;5117757;27;19953;-61
2023/01/17 02:10:21;;;;;;;;;;;;;;;4.94;100.00;95169.22;5117696;28;19951;-61
2023/01/17 02:12:48;;;;;;;;;;;;;;;5.06;100.00;95180.88;5114654;28;20477;-61
2023/01/17 02:15:14;;;;;;;;;;;;;;;5.02;100.00;95173.78;5114255;28;19940;-61
2023/01/17 02:17:46;;;;;;;;;;;;;;;4.99;100.00;95171.75;5116095;28;19920;-61
2023/01/17 02:20:27;;;;;;;;;;;;;;;4.96;100.00;95164.41;5117669;28;19971;-61
2023/01/17 02:23:11;;;;;;;;;;;;;;;4.98;100.00;95173.63;5104452;28;19951;-61
2023/01/17 02:25:51;;;;;;;;;;;;;;;4.92;100.00;95158.16;5094100;28;19992;-61
2023/01/17 02:28:23;;;;;;;;;;;;;;;5.01;100.00;95166.97;5117512;28;20528;-61
2023/01/17 02:30:53;;;;;;;;;;;;;;;4.92;100.00;95168.72;5114341;28;19924;-61
2023/01/17 02:33:24;;;;;;;;;;;;;;;4.94;100.00;95153.34;5134445;27;19955;-61
2023/01/17 02:36:03;;;;;;;;;;;;;;;4.96;100.00;95164.41;5142586;27;19927;-61
2023/01/17 02:38:33;;;;;;;;;;;;;;;4.88;100.00;95171.16;5134311;27;19931;-61
2023/01/17 02:41:01;;;;;;;;;;;;;;;4.94;100.00;95163.91;5134602;27;19927;-61
2023/01/17 02:43:27;;;;;;;;;;;;;;;4.90;100.00;95161.84;5126916;28;19931;-61
2023/01/17 02:45:55;;;;;;;;;;;;;;;4.93;100.00;95170.28;5124051;28;19935;-61
2023/01/17 02:48:24;;;;;;;;;;;;;;;5.05;100.00;95175.84;5123870;28;19977;-61
2023/01/17 02:51:06;;;;;;;;;;;;;;;4.80;100.00;95174.47;5102525;28;19996;-61
2023/01/17 02:53:41;;;;;;;;;;;;;;;4.82;100.00;95185.56;5121051;28;19974;-61
2023/01/17 02:56:14;;;;;;;;;;;;;;;4.83;100.00;95185.25;5124015;28;19992;-61
2023/01/17 02:58:49;;;;;;;;;;;;;;;4.94;100.00;95175.28;5121607;28;19955;-61
2023/01/17 03:01:23;;;;;;;;;;;;;;;4.91;100.00;95189.09;5120051;28;19967;-61
2023/01/17 03:03:51;;;;;;;;;;;;;;;4.86;100.00;95189.94;5123183;28;19934;-61
2023/01/17 03:06:20;;;;;;;;;;;;;;;4.90;100.00;95208.66;5124431;28;19924;-61
2023/01/17 03:08:48;;;;;;;;;;;;;;;4.83;100.00;95187.09;5120003;28;19955;-61
2023/01/17 03:11:15;;;;;;;;;;;;;;;4.91;100.00;95191.72;5120035;28;20022;-61
2023/01/17 03:13:42;;;;;;;;;;;;;;;5.06;100.00;95198.59;5121872;28;19924;-61
2023/01/17 03:16:12;;;;;;;;;;;;;;;4.98;100.00;95188.72;5123449;28;19924;-61
2023/01/17 03:18:40;;;;;;;;;;;;;;;4.87;100.00;95198.66;5121789;28;20331;-61
2023/01/17 03:21:07;;;;;;;;;;;;;;;4.82;100.00;95198.78;5119732;28;19936;-61
2023/01/17 03:23:33;;;;;;;;;;;;;;;4.79;100.00;95200.16;5120436;28;20405;-61
2023/01/17 03:25:59;;;;;;;;;;;;;;;4.99;100.00;95204.25;5123221;28;19934;-61
2023/01/17 03:28:26;;;;;;;;;;;;;;;4.84;100.00;95201.91;5123508;28;19920;-61
2023/01/17 03:30:52;;;;;;;;;;;;;;;4.76;100.00;95199.94;5111260;28;19931;-61
2023/01/17 03:33:19;;;;;;;;;;;;;;;4.94;100.00;95216.81;5111065;28;19987;-61
2023/01/17 03:35:47;;;;;;;;;;;;;;;4.88;100.00;95213.47;5118952;28;19932;-61
2023/01/17 03:38:13;;;;;;;;;;;;;;;4.99;100.00;95214.06;5117487;28;19919;-61
2023/01/17 03:40:39;;;;;;;;;;;;;;;4.93;100.00;95223.16;5121038;28;19959;-61
2023/01/17 03:43:06;;;;;;;;;;;;;;;4.79;100.00;95217.88;5119356;28;20563;-61
2023/01/17 03:45:32;;;;;;;;;;;;;;;4.85;100.00;95220.13;5119852;28;19955;-61
2023/01/17 03:47:59;;;;;;;;;;;;;;;4.86;100.00;95223.53;5122874;28;19923;-62
2023/01/17 03:50:25;;;;;;;;;;;;;;;4.82;100.00;95228.66;5122732;28;19966;-61
2023/01/17 03:52:53;;;;;;;;;;;;;;;4.95;100.00;95228.97;5119264;28;19970;-61
2023/01/17 03:55:19;;;;;;;;;;;;;;;5.00;100.00;95240.22;5118313;28;19963;-61
2023/01/17 03:57:46;;;;;;;;;;;;;;;4.81;100.00;95247.44;5121801;28;20522;-60
2023/01/17 04:00:13;;;;;;;;;;;;;;;4.83;100.00;95243.41;5122759;28;19977;-60
2023/01/17 04:02:39;;;;;;;;;;;;;;;4.81;100.00;95239.50;5121023;28;19971;-60
2023/01/17 04:05:05;;;;;;;;;;;;;;;4.71;100.00;95234.38;5124612;28;19919;-61
2023/01/17 04:07:32;;;;;;;;;;;;;;;4.76;100.00;95239.59;5113988;28;19972;-60
2023/01/17 04:09:59;;;;;;;;;;;;;;;4.88;100.00;95234.63;5122535;28;19923;-60
2023/01/17 04:12:26;;;;;;;;;;;;;;;4.94;100.00;95243.25;5122275;28;19987;-60
2023/01/17 04:14:52;;;;;;;;;;;;;;;4.72;100.00;95235.97;5110155;28;19924;-60
2023/01/17 04:17:19;;;;;;;;;;;;;;;4.81;100.00;95232.34;5110126;28;19935;-60
2023/01/17 04:19:46;;;;;;;;;;;;;;;4.82;100.00;95241.06;5110183;28;19935;-60
2023/01/17 04:22:12;;;;;;;;;;;;;;;4.95;100.00;95242.97;5110040;28;19963;-60
2023/01/17 04:24:38;;;;;;;;;;;;;;;4.76;100.00;95236.94;5110074;28;20050;-60
2023/01/17 04:27:06;;;;;;;;;;;;;;;5.02;100.00;95243.34;5110324;28;19959;-61
2023/01/17 04:29:32;;;;;;;;;;;;;;;5.07;100.00;95248.56;5109945;28;19942;-60
2023/01/17 04:31:59;;;;;;;;;;;;;;;5.06;100.00;95246.97;5109922;28;19928;-61
2023/01/17 04:34:25;;;;;;;;;;;;;;;5.09;100.00;95256.19;5109601;28;20023;-61
2023/01/17 04:36:52;;;;;;;;;;;;;;;5.16;100.00;95256.59;5117795;28;19939;-60
2023/01/17 04:39:18;;;;;;;;;;;;;;;4.99;100.00;95254.50;5117973;28;19920;-60
2023/01/17 04:41:44;;;;;;;;;;;;;;;5.05;100.00;95268.41;5120517;28;20411;-60
2023/01/17 04:44:12;;;;;;;;;;;;;;;4.95;100.00;95260.69;5121458;28;19928;-60
2023/01/17 04:46:38;;;;;;;;;;;;;;;4.89;100.00;95263.41;5119654;28;19962;-60
2023/01/17 04:49:05;;;;;;;;;;;;;;;4.90;100.00;95258.91;5117853;28;19924;-60
2023/01/17 04:51:31;;;;;;;;;;;;;;;4.89;100.00;95263.41;5118549;28;19959;-60
2023/01/17 04:53:57;;;;;;;;;;;;;;;4.80;100.00;95256.44;5121384;28;19958;-61
2023/01/17 04:56:24;;;;;;;;;;;;;;;5.04;100.00;95270.31;5121468;28;19951;-60
2023/01/17 04:58:50;;;;;;;;;;;;;;;5.13;100.00;95263.25;5118095;28;19966;-60
2023/01/17 05:01:18;;;;;;;;;;;;;;;5.07;100.00;95259.16;5117874;28;19984;-60
2023/01/17 05:03:44;;;;;;;;;;;;;;;5.05;100.00;95258.63;5120434;28;20459;-60
2023/01/17 05:06:10;;;;;;;;;;;;;;;5.03;100.00;95250.22;5137650;27;19928;-60
2023/01/17 05:08:37;;;;;;;;;;;;;;;4.97;100.00;95259.31;5120115;28;19983;-60
2023/01/17 05:11:03;;;;;;;;;;;;;;;4.99;100.00;95248.44;5118481;28;20002;-60
2023/01/17 05:13:30;;;;;;;;;;;;;;;5.17;100.00;95261.56;5118501;28;19963;-60
2023/01/17 05:15:56;;;;;;;;;;;;;;;5.15;100.00;95271.69;5121586;28;19927;-60
2023/01/17 05:18:24;;;;;;;;;;;;;;;5.10;100.00;95276.28;5121356;28;19920;-60
2023/01/17 05:20:50;;;;;;;;;;;;;;;4.94;100.00;95288.19;5118118;28;19965;-60
2023/01/17 05:23:17;;;;;;;;;;;;;;;5.20;100.00;95279.50;5117631;28;19920;-60
2023/01/17 05:25:43;;;;;;;;;;;;;;;5.28;100.00;95281.50;5119766;28;19955;-60
2023/01/17 05:28:10;;;;;;;;;;;;;;;5.28;100.00;95284.16;5121086;28;19920;-60
2023/01/17 05:30:37;;;;;;;;;;;;;;;5.29;100.00;95287.56;5119600;28;20333;-61
2023/01/17 05:33:03;;;;;;;;;;;;;;;5.21;100.00;95285.59;5117481;28;19959;-61
2023/01/17 05:35:32;;;;;;;;;;;;;;;5.18;100.00;95286.19;5125800;28;19959;-61
2023/01/17 05:37:59;;;;;;;;;;;;;;;5.07;100.00;95290.88;5113795;28;19942;-61
2023/01/17 05:40:26;;;;;;;;;;;;;;;5.17;100.00;95292.56;5121350;28;19923;-61
2023/01/17 05:42:54;;;;;;;;;;;;;;;5.12;100.00;95296.06;5109557;28;19920;-61
2023/01/17 05:45:21;;;;;;;;;;;;;;;5.08;100.00;95299.56;5109310;28;19963;-61
2023/01/17 05:47:48;;;;;;;;;;;;;;;5.08;100.00;95307.50;5109255;28;19935;-61
2023/01/17 05:50:15;;;;;;;;;;;;;;;5.11;100.00;95299.78;5109452;28;19924;-61
2023/01/17 05:52:48;;;;;;;;;;;;;;;5.21;100.00;95312.03;5108981;28;20423;-61
2023/01/17 05:55:15;;;;;;;;;;;;;;;5.24;100.00;95303.53;5109114;28;20046;-61
2023/01/17 05:57:41;;;;;;;;;;;;;;;5.14;100.00;95311.63;5109021;28;20637;-61
2023/01/17 06:00:08;;;;;;;;;;;;;;;5.12;100.00;95319.88;5109067;28;20014;-61
2023/01/17 06:02:35;;;;;;;;;;;;;;;5.16;100.00;95317.44;5109102;28;19925;-60
2023/01/17 06:05:01;;;;;;;;;;;;;;;5.05;100.00;95313.38;5117932;28;19935;-61
2023/01/17 06:07:27;;;;;;;;;;;;;;;5.19;100.00;95316.84;5124174;28;19951;-61
2023/01/17 06:09:55;;;;;;;;;;;;;;;5.20;100.00;95321.06;5120806;28;19926;-61
2023/01/17 06:12:21;;;;;;;;;;;;;;;5.22;100.00;95310.97;5120597;28;19991;-61
2023/01/17 06:14:48;;;;;;;;;;;;;;;5.22;100.00;95322.34;5117800;28;20026;-62
2023/01/17 06:17:14;;;;;;;;;;;;;;;5.26;100.00;95325.19;5117366;28;19928;-62
2023/01/17 06:19:40;;;;;;;;;;;;;;;5.21;100.00;95325.28;5122084;28;19951;-62
2023/01/17 06:22:07;;;;;;;;;;;;;;;5.27;100.00;95316.16;5124729;28;19956;-62
2023/01/17 06:24:33;;;;;;;;;;;;;;;5.29;100.00;95327.25;5123705;28;19982;-62
2023/01/17 06:27:01;;;;;;;;;;;;;;;5.33;100.00;95330.88;5120991;28;19928;-61
2023/01/17 06:29:27;;;;;;;;;;;;;;;5.34;100.00;95337.75;5121001;28;19966;-60
2023/01/17 06:31:54;;;;;;;;;;;;;;;5.36;100.00;95340.88;5120918;28;19924;-62
2023/01/17 06:34:20;;;;;;;;;;;;;;;5.36;100.00;95336.38;5120873;28;19962;-62
2023/01/17 06:36:46;;;;;;;;;;;;;;;5.21;100.00;95339.28;5120977;28;19988;-62
2023/01/17 06:39:13;;;;;;;;;;;;;;;5.19;100.00;95346.75;5120847;28;19931;-62
2023/01/17 06:41:39;;;;;;;;;;;;;;;5.11;100.00;95352.69;5122336;28;19928;-62
2023/01/17 06:44:08;;;;;;;;;;;;;;;5.14;100.00;95352.09;5124367;28;19988;-62
2023/01/17 06:46:35;;;;;;;;;;;;;;;5.13;100.00;95345.25;5123119;28;19924;-62
2023/01/17 06:49:01;;;;;;;;;;;;;;;5.00;100.00;95351.28;5120581;28;19928;-62
2023/01/17 06:51:28;;;;;;;;;;;;;;;4.95;100.00;95346.09;5120312;28;19943;-61
2023/01/17 06:53:54;;;;;;;;;;;;;;;4.93;100.00;95350.06;5123988;28;19924;-62
2023/01/17 06:56:21;;;;;;;;;;;;;;;4.65;100.00;95349.19;5123919;28;19966;-61
2023/01/17 06:58:48;;;;;;;;;;;;;;;4.74;100.00;95348.25;5121130;28;19923;-61
2023/01/17 07:01:16;;;;;;;;;;;;;;;4.74;100.00;95342.19;5120559;28;19987;-61
2023/01/17 07:03:43;;;;;;;;;;;;;;;4.36;100.00;95349.38;5122212;28;19935;-61
2023/01/17 07:06:09;;;;;;;;;;;;;;;4.29;100.00;95339.16;5140540;27;19930;-61
2023/01/17 07:08:36;;;;;;;;;;;;;;;3.99;100.00;95328.97;5122457;28;19951;-61
2023/01/17 07:11:04;;;;;;;;;;;;;;;4.07;100.00;95335.50;5120227;28;19936;-61
2023/01/17 07:13:30;;;;;;;;;;;;;;;4.31;100.00;95352.06;5120190;28;20093;-61
2023/01/17 07:15:59;;;;;;;;;;;;;;;4.41;100.00;95346.63;5123633;28;20034;-61
2023/01/17 07:18:27;;;;;;;;;;;;;;;4.66;100.00;95345.47;5123446;28;19924;-61
2023/01/17 07:20:54;;;;;;;;;;;;;;;4.18;100.00;95336.91;5111545;28;19950;-61
2023/01/17 07:23:21;;;;;;;;;;;;;;;3.96;100.00;95348.03;5111581;28;19924;-61
2023/01/17 07:25:50;;;;;;;;;;;;;;;3.71;100.00;95348.34;5111612;28;19971;-61
2023/01/17 07:28:17;;;;;;;;;;;;;;;3.80;100.00;95354.56;5111495;28;19982;-61
2023/01/17 07:30:43;;;;;;;;;;;;;;;3.76;100.00;95354.34;5111372;28;19947;-61
2023/01/17 07:33:09;;;;;;;;;;;;;;;3.74;100.00;95355.69;5111486;28;19924;-61
2023/01/17 07:35:37;;;;;;;;;;;;;;;3.94;100.00;95352.00;5119546;28;19928;-61
2023/01/17 07:38:10;;;;;;;;;;;;;;;3.78;100.00;95354.06;5116475;28;20018;-61
2023/01/17 07:40:36;;;;;;;;;;;;;;;3.69;100.00;95350.47;5121865;28;20012;-61
2023/01/17 07:43:11;;;;;;;;;;;;;;;3.78;100.00;95340.84;5119857;28;19928;-61
2023/01/17 07:45:40;;;;;;;;;;;;;;;4.06;100.00;95339.97;5121016;28;19977;-61
2023/01/17 07:48:06;;;;;;;;;;;;;;;4.20;100.00;95332.16;5123183;28;19947;-61
2023/01/17 07:50:32;;;;;;;;;;;;;;;4.23;100.00;95339.50;5122464;28;19924;-61
2023/01/17 07:53:00;;;;;;;;;;;;;;;4.40;100.00;95337.13;5101628;28;19924;-61
2023/01/17 07:55:27;;;;;;;;;;;;;;;4.65;100.00;95341.25;5119753;28;19959;-61
2023/01/17 07:57:53;;;;;;;;;;;;;;;4.72;100.00;95339.84;5111007;28;19928;-61
2023/01/17 08:00:21;;;;;;;;;;;;;;;4.83;100.00;95329.88;5110972;28;19971;-62
2023/01/17 08:02:48;;;;;;;;;;;;;;;4.92;100.00;95332.66;5110866;28;19928;-62
2023/01/17 08:05:14;;;;;;;;;;;;;;;4.98;100.00;95324.34;5117333;28;19935;-61
2023/01/17 08:07:41;;;;;;;;;;;;;;;4.74;100.00;95324.47;5114270;28;19975;-61
2023/01/17 08:10:11;;;;;;;;;;;;;;;4.64;100.00;95319.31;5122701;28;19979;-61
2023/01/17 08:12:38;;;;;;;;;;;;;;;4.60;100.00;95313.06;5121355;28;19924;-61
2023/01/17 08:15:05;;;;;;;;;;;;;;;4.69;100.00;95323.75;5119291;28;19946;-61
2023/01/17 08:17:31;;;;;;;;;;;;;;;4.68;100.00;95314.25;5119433;28;19928;-61
2023/01/17 08:19:58;;;;;;;;;;;;;;;4.60;100.00;95312.28;5122682;28;19924;-61
2023/01/17 08:22:24;;;;;;;;;;;;;;;4.56;100.00;95322.63;5104336;28;19924;-61
2023/01/17 08:24:50;;;;;;;;;;;;;;;4.57;100.00;95326.06;5119683;28;19924;-61
2023/01/17 08:27:18;;;;;;;;;;;;;;;4.54;100.00;95327.44;5119179;28;19924;-61
2023/01/17 08:29:47;;;;;;;;;;;;;;;4.56;100.00;95329.78;5121469;28;19924;-61
2023/01/17 08:32:13;;;;;;;;;;;;;;;4.57;100.00;95331.34;5122863;28;19928;-61
2023/01/17 08:34:40;;;;;;;;;;;;;;;4.59;100.00;95337.13;5122543;28;19959;-61
2023/01/17 08:37:06;;;;;;;;;;;;;;;4.35;100.00;95340.66;5117313;28;19924;-61
2023/01/17 08:39:32;;;;;;;;;;;;;;;4.05;100.00;95332.34;5119296;28;19946;-61
2023/01/17 08:41:59;;;;;;;;;;;;;;;3.89;100.00;95326.47;5122137;28;19935;-61
2023/01/17 08:44:26;;;;;;;;;;;;;;;3.86;100.00;95313.84;5122300;28;19936;-61
2023/01/17 08:46:53;;;;;;;;;;;;;;;3.93;100.00;95318.78;5100578;28;19928;-61
2023/01/17 08:49:19;;;;;;;;;;;;;;;3.87;100.00;95310.13;5118870;28;19983;-61
2023/01/17 08:51:46;;;;;;;;;;;;;;;3.86;100.00;95310.41;5121482;28;19947;-61
2023/01/17 08:54:14;;;;;;;;;;;;;;;3.68;100.00;95322.53;5122258;28;19968;-61
2023/01/17 08:56:41;;;;;;;;;;;;;;;3.58;100.00;95325.28;5120203;28;19931;-61
2023/01/17 08:59:10;;;;;;;;;;;;;;;3.55;100.00;95339.03;5118496;28;19924;-60
2023/01/17 09:01:40;;;;;;;;;;;;;;;3.53;100.00;95341.94;5119387;28;19935;-60
2023/01/17 09:04:07;;;;;;;;;;;;;;;3.56;100.00;95327.41;5122072;28;19946;-60
2023/01/17 09:06:35;;;;;;;;;;;;;;;3.66;100.00;95324.63;5120800;28;19949;-60
2023/01/17 09:09:02;;;;;;;;;;;;;;;3.77;100.00;95320.81;5118350;28;19970;-60
2023/01/17 09:11:28;;;;;;;;;;;;;;;3.85;100.00;95317.56;5118190;28;19924;-60
2023/01/17 09:13:54;;;;;;;;;;;;;;;3.96;100.00;95318.22;5121768;28;19962;-60
2023/01/17 09:16:21;;;;;;;;;;;;;;;3.99;100.00;95309.72;5121747;28;20058;-60
2023/01/17 09:18:48;;;;;;;;;;;;;;;4.42;100.00;95310.44;5119047;28;19978;-60
2023/01/17 09:21:16;;;;;;;;;;;;;;;4.20;100.00;95301.25;5118190;28;19979;-60
2023/01/17 09:23:43;;;;;;;;;;;;;;;4.40;100.00;95296.72;5120407;28;19988;-60
2023/01/17 09:26:17;;;;;;;;;;;;;;;4.46;100.00;95299.00;5122106;28;19927;-60
2023/01/17 09:28:43;;;;;;;;;;;;;;;4.46;100.00;95300.84;5119612;28;19959;-61
2023/01/17 09:31:09;;;;;;;;;;;;;;;4.09;100.00;95306.94;5118105;28;19999;-61
2023/01/17 09:33:36;;;;;;;;;;;;;;;3.89;100.00;95308.00;5119085;28;20010;-61
2023/01/17 09:36:04;;;;;;;;;;;;;;;3.93;100.00;95314.25;5125087;28;19928;-61
2023/01/17 09:38:30;;;;;;;;;;;;;;;3.95;100.00;95316.63;5118044;28;19924;-61
2023/01/17 09:40:57;;;;;;;;;;;;;;;4.05;100.00;95317.31;5118162;28;19924;-61
2023/01/17 09:43:26;;;;;;;;;;;;;;;4.08;100.00;95321.22;5118033;28;19931;-61
2023/01/17 09:45:52;;;;;;;;;;;;;;;4.18;100.00;95319.22;5121384;28;19924;-61
2023/01/17 09:48:23;;;;;;;;;;;;;;;4.32;100.00;95321.94;5121431;28;19924;-61
2023/01/17 09:50:52;;;;;;;;;;;;;;;4.41;100.00;95320.22;5118460;28;20399;-61
2023/01/17 09:53:21;;;;;;;;;;;;;;;4.64;100.00;95324.63;5119397;28;19951;-61
2023/01/17 09:55:52;;;;;;;;;;;;;;;4.86;100.00;95331.94;5124481;28;19924;-61
2023/01/17 09:58:19;;;;;;;;;;;;;;;4.73;100.00;95322.91;5125385;28;19946;-61
2023/01/17 10:00:54;;;;;;;;;;;;;;;4.86;100.00;95337.22;5123214;28;19924;-61
2023/01/17 10:03:25;;;;;;;;;;;;;;;5.03;100.00;95332.19;5121776;28;19942;-60
2023/01/17 10:05:57;;;;;;;;;;;;;;;4.99;100.00;95331.19;5123808;27;20033;-61
2023/01/17 10:08:34;;;;;;;;;;;;;;;4.84;100.00;95329.59;5125489;28;19966;-60
2023/01/17 10:11:12;;;;;;;;;;;;;;;4.99;100.00;95325.91;5120704;28;19941;-60
2023/01/17 10:13:41;;;;;;;;;;;;;;;4.90;100.00;95317.06;5122881;28;19987;-60
2023/01/17 10:16:18;;;;;;;;;;;;;;;4.75;100.00;95310.19;5125347;28;19931;-59
2023/01/17 10:18:55;;;;;;;;;;;;;;;4.95;100.00;95309.06;5122948;28;19924;-59
2023/01/17 10:21:27;;;;;;;;;;;;;;;4.99;100.00;95299.47;5121478;28;19955;-61
2023/01/17 10:24:15;;;;;;;;;;;;;;;5.18;100.00;95292.25;5121734;28;19924;-60
2023/01/17 10:26:41;;;;;;;;;;;;;;;4.88;100.00;95276.94;5123454;28;19920;-60
2023/01/17 10:29:11;;;;;;;;;;;;;;;4.99;100.00;95278.31;5125141;28;19931;-60
2023/01/17 10:31:41;;;;;;;;;;;;;;;5.14;100.00;95267.47;5123435;28;19923;-61
2023/01/17 10:34:14;;;;;;;;;;;;;;;5.16;100.00;95261.88;5121404;28;19966;-61
2023/01/17 10:36:42;;;;;;;;;;;;;;;5.24;100.00;95254.03;5137976;27;19924;-61
2023/01/17 10:39:15;;;;;;;;;;;;;;;5.06;100.00;95246.97;5121286;28;19979;-62
2023/01/17 10:41:43;;;;;;;;;;;;;;;4.92;100.00;95240.13;5123182;28;19991;-61
2023/01/17 10:44:13;;;;;;;;;;;;;;;4.94;100.00;95236.09;5124598;28;19923;-60
2023/01/17 10:46:42;;;;;;;;;;;;;;;4.81;100.00;95224.44;5123114;28;19959;-60
2023/01/17 10:49:14;;;;;;;;;;;;;;;4.87;100.00;95217.19;5121057;28;19939;-60
2023/01/17 10:51:48;;;;;;;;;;;;;;;4.90;100.00;95216.59;5122861;28;19951;-61
2023/01/17 10:54:23;;;;;;;;;;;;;;;4.80;100.00;95206.19;5124506;28;19967;-61
2023/01/17 10:56:50;;;;;;;;;;;;;;;4.83;100.00;95205.63;5121523;28;19970;-61
2023/01/17 10:59:18;;;;;;;;;;;;;;;4.95;100.00;95208.59;5121020;28;19931;-60
2023/01/17 11:01:44;;;;;;;;;;;;;;;4.90;100.00;95206.03;5122953;28;19924;-61
2023/01/17 11:04:14;;;;;;;;;;;;;;;4.87;100.00;95215.31;5123832;28;19920;-61
2023/01/17 11:06:41;;;;;;;;;;;;;;;4.91;100.00;95215.53;5139041;27;19931;-61
2023/01/17 11:09:10;;;;;;;;;;;;;;;4.91;100.00;95204.94;5120716;28;19951;-61
2023/01/17 11:11:44;;;;;;;;;;;;;;;4.93;100.00;95200.16;5121438;28;19968;-61
2023/01/17 11:14:16;;;;;;;;;;;;;;;4.93;100.00;95202.78;5124138;28;19979;-59
2023/01/17 11:16:43;;;;;;;;;;;;;;;4.84;100.00;95212.47;5122011;28;19920;-60
2023/01/17 11:19:14;;;;;;;;;;;;;;;4.92;100.00;95209.16;5120245;28;19956;-60
2023/01/17 11:21:49;;;;;;;;;;;;;;;4.87;100.00;95211.91;5121683;28;19977;-60
2023/01/17 11:24:19;;;;;;;;;;;;;;;4.88;100.00;95194.97;5124411;28;19939;-61
2023/01/17 11:26:48;;;;;;;;;;;;;;;5.07;100.00;95190.38;5121513;28;20578;-61
2023/01/17 11:29:21;;;;;;;;;;;;;;;5.05;100.00;95186.44;5119972;28;20016;-61
2023/01/17 11:31:48;;;;;;;;;;;;;;;4.99;100.00;95185.75;5122747;28;19943;-61
2023/01/17 11:34:16;;;;;;;;;;;;;;;4.98;100.00;95176.28;5123784;28;19924;-61
2023/01/17 11:36:42;;;;;;;;;;;;;;;4.96;100.00;95180.25;5138259;27;19945;-61
2023/01/17 11:39:22;;;;;;;;;;;;;;;5.06;100.00;95165.00;5120079;28;19936;-61
2023/01/17 11:41:51;;;;;;;;;;;;;;;5.21;100.00;95166.56;5122753;28;20471;-58
2023/01/17 11:44:21;;;;;;;;;;;;;;;5.27;100.00;95170.66;5123552;28;19924;-60
2023/01/17 11:46:48;;;;;;;;;;;;;;;5.38;100.00;95162.22;5120630;28;19924;-60
2023/01/17 11:49:22;;;;;;;;;;;;;;;5.16;100.00;95159.50;5120204;28;19956;-61
2023/01/17 11:51:48;;;;;;;;;;;;;;;5.17;100.00;95142.53;5122515;28;19924;-61
2023/01/17 11:54:17;;;;;;;;;;;;;;;5.19;100.00;95139.63;5123351;28;19959;-60
2023/01/17 11:56:45;;;;;;;;;;;;;;;5.21;100.00;95134.81;5121059;28;19991;-60
2023/01/17 11:59:23;;;;;;;;;;;;;;;5.18;100.00;95138.03;5119664;28;19932;-60
2023/01/17 12:01:54;;;;;;;;;;;;;;;5.26;100.00;95134.72;5122682;28;19924;-61
2023/01/17 12:04:28;;;;;;;;;;;;;;;5.18;100.00;95132.75;5123538;28;19955;-61
2023/01/17 12:07:05;;;;;;;;;;;;;;;5.21;100.00;95132.94;5120100;28;19991;-60
2023/01/17 12:09:35;;;;;;;;;;;;;;;5.19;100.00;95135.13;5120106;28;19924;-60
2023/01/17 12:15:00;;;;;;;;;;;;;;;5.18;100.00;95127.47;5119873;28;19924;-60
2023/01/17 12:17:34;;;;;;;;;;;;;;;5.25;100.00;95118.06;5100411;28;19977;-60
2023/01/17 12:20:04;;;;;;;;;;;;;;;5.54;100.00;95114.28;5119319;28;20010;-61
2023/01/17 12:22:44;;;;;;;;;;;;;;;5.38;100.00;95103.25;5119340;28;19927;-61
2023/01/17 12:25:20;;;;;;;;;;;;;;;5.19;100.00;95107.88;5122739;28;19920;-61
2023/01/17 12:27:51;;;;;;;;;;;;;;;5.22;100.00;95108.06;5120083;28;19924;-61
2023/01/17 12:30:30;;;;;;;;;;;;;;;5.14;100.00;95108.75;5118965;28;19932;-61
2023/01/17 12:33:04;;;;;;;;;;;;;;;5.17;100.00;95105.50;5118818;28;19926;-61
2023/01/17 12:35:37;;;;;;;;;;;;;;;5.07;100.00;95113.69;5135726;27;19969;-61
2023/01/17 12:38:05;;;;;;;;;;;;;;;5.15;100.00;95091.81;5122334;28;19949;-61
2023/01/17 12:40:35;;;;;;;;;;;;;;;5.26;100.00;95093.16;5121670;28;19967;-61
2023/01/17 12:43:05;;;;;;;;;;;;;;;5.20;100.00;95091.69;5118856;28;19951;-61
2023/01/17 12:45:36;;;;;;;;;;;;;;;5.20;100.00;95096.97;5100915;28;19924;-61
2023/01/17 12:48:05;;;;;;;;;;;;;;;5.22;100.00;95094.84;5122316;28;19949;-61
2023/01/17 12:50:35;;;;;;;;;;;;;;;5.16;100.00;95103.97;5121845;28;19924;-61
2023/01/17 12:53:04;;;;;;;;;;;;;;;5.05;100.00;95086.72;5119091;28;19925;-61
2023/01/17 12:55:37;;;;;;;;;;;;;;;4.98;100.00;95093.50;5118916;28;19924;-61
2023/01/17 12:58:05;;;;;;;;;;;;;;;4.99;100.00;95093.19;5122052;28;19919;-61
2023/01/17 13:00:37;;;;;;;;;;;;;;;4.97;100.00;95089.28;5121122;28;20038;-61
2023/01/17 13:03:08;;;;;;;;;;;;;;;5.04;100.00;95087.81;5118350;28;20038;-60
2023/01/17 13:05:37;;;;;;;;;;;;;;;5.12;100.00;95084.47;5135697;27;19930;-60
2023/01/17 13:08:10;;;;;;;;;;;;;;;5.09;100.00;95074.50;5121599;28;19923;-61
2023/01/17 13:10:40;;;;;;;;;;;;;;;5.18;100.00;95070.06;5120389;28;19932;-61
2023/01/17 13:13:13;;;;;;;;;;;;;;;5.23;100.00;95071.81;5118138;28;19984;-61
2023/01/17 13:15:42;;;;;;;;;;;;;;;5.17;100.00;95065.84;5119357;28;20014;-61
2023/01/17 13:18:10;;;;;;;;;;;;;;;5.30;100.00;95057.09;5121639;28;19949;-61
2023/01/17 13:20:45;;;;;;;;;;;;;;;5.24;100.00;95050.34;5120162;28;20368;-61
2023/01/17 13:23:16;;;;;;;;;;;;;;;5.23;100.00;95046.13;5118303;28;20030;-61
2023/01/17 13:25:46;;;;;;;;;;;;;;;5.28;100.00;95039.97;5120030;28;19924;-61
2023/01/17 13:28:17;;;;;;;;;;;;;;;5.27;100.00;95047.09;5121652;28;19945;-62
2023/01/17 13:31:00;;;;;;;;;;;;;;;5.30;100.00;95041.22;5119186;28;20003;-61
2023/01/17 13:33:35;;;;;;;;;;;;;;;5.41;100.00;95031.97;5117979;28;20018;-61
2023/01/17 13:36:10;;;;;;;;;;;;;;;5.39;100.00;95038.63;5117847;28;19931;-61
2023/01/17 13:38:53;;;;;;;;;;;;;;;5.37;100.00;95036.31;5117630;28;20401;-60
2023/01/17 13:41:35;;;;;;;;;;;;;;;5.38;100.00;95029.16;5117690;28;19924;-60
2023/01/17 13:47:03;;;;;;;;;;;;;;;5.38;100.00;95032.56;5119992;28;19985;-60
2023/01/17 13:49:43;;;;;;;;;;;;;;;5.40;100.00;95026.97;5120715;28;20402;-60
2023/01/17 13:52:11;;;;;;;;;;;;;;;5.36;100.00;95023.34;5118209;28;19991;-60
2023/01/17 13:54:44;;;;;;;;;;;;;;;5.27;100.00;95015.34;5118600;28;19928;-61
2023/01/17 13:57:39;;;;;;;;;;;;;;;5.34;100.00;95013.09;5103198;28;19930;-61
2023/01/17 14:00:24;;;;;;;;;;;;;;;5.33;100.00;95023.94;5117553;28;19920;-61
2023/01/17 14:02:52;;;;;;;;;;;;;;;5.23;100.00;95024.97;5120568;28;19924;-61
2023/01/17 14:05:20;;;;;;;;;;;;;;;5.20;100.00;95016.88;5128266;27;19961;-61
2023/01/17 14:07:48;;;;;;;;;;;;;;;5.20;100.00;95025.56;5122255;28;19950;-61
2023/01/17 14:10:29;;;;;;;;;;;;;;;5.09;100.00;95024.25;5121087;28;19924;-61
2023/01/17 14:12:56;;;;;;;;;;;;;;;5.13;100.00;95014.63;5108042;28;19959;-60
2023/01/17 14:15:24;;;;;;;;;;;;;;;5.13;100.00;95025.22;5108799;28;19960;-61
2023/01/17 14:17:57;;;;;;;;;;;;;;;5.15;100.00;95020.41;5109097;28;19935;-61
2023/01/17 14:20:42;;;;;;;;;;;;;;;5.10;100.00;95015.22;5109059;28;19924;-61
2023/01/17 14:23:24;;;;;;;;;;;;;;;5.10;100.00;95004.66;5114673;28;19954;-61
2023/01/17 14:25:51;;;;;;;;;;;;;;;5.02;100.00;95013.28;5118193;28;19932;-61
2023/01/17 14:28:23;;;;;;;;;;;;;;;5.04;100.00;94997.91;5117553;28;19924;-60
2023/01/17 14:30:54;;;;;;;;;;;;;;;4.97;100.00;95005.47;5120038;28;19963;-60
2023/01/17 14:33:27;;;;;;;;;;;;;;;4.97;100.00;95004.69;5120711;28;19919;-60
2023/01/17 14:35:55;;;;;;;;;;;;;;;5.07;100.00;95005.25;5098970;28;20003;-61
2023/01/17 14:38:23;;;;;;;;;;;;;;;5.14;100.00;95002.16;5116318;28;19962;-61